createdAt,value
2019-03-18T00:00:32.848Z,76.42
2019-03-18T00:03:01.661Z,78.37
2019-03-18T00:05:30.346Z,78.58
2019-03-18T00:07:58.965Z,78.93
2019-03-18T00:10:28.998Z,78.99
2019-03-18T00:12:59.355Z,78.76
2019-03-18T00:15:27.941Z,78.08
2019-03-18T00:17:57.838Z,77.94
2019-03-18T00:20:26.256Z,77.96
2019-03-18T00:22:54.726Z,77.60
2019-03-18T00:25:23.264Z,76.98
2019-03-18T00:27:51.753Z,77.03
2019-03-18T00:30:20.995Z,76.96
2019-03-18T00:32:49.556Z,76.18
2019-03-18T00:35:18.196Z,76.54
2019-03-18T00:37:46.697Z,75.78
2019-03-18T00:40:21.393Z,75.84
2019-03-18T00:42:49.883Z,74.74
2019-03-18T00:45:19.992Z,74.68
2019-03-18T00:47:48.654Z,74.96
2019-03-18T00:50:17.599Z,75.09
2019-03-18T00:52:46.093Z,74.32
2019-03-18T00:55:14.747Z,74.23
2019-03-18T00:57:43.273Z,74.03
2019-03-18T01:00:16.758Z,73.99
2019-03-18T01:02:45.275Z,73.99
2019-03-18T01:05:16.319Z,73.01
2019-03-18T01:07:45.066Z,72.78
2019-03-18T01:10:17.975Z,73.23
2019-03-18T01:12:46.440Z,73.48
2019-03-18T01:15:27.340Z,73.57
2019-03-18T01:17:45.333Z,74.47
2019-03-18T01:20:14.671Z,74.78
2019-03-18T01:22:43.148Z,74.65
2019-03-18T01:25:12.127Z,75.43
2019-03-18T01:27:40.824Z,75.04
2019-03-18T01:30:15.989Z,75.50
2019-03-18T01:32:44.529Z,75.36
2019-03-18T01:35:13.136Z,76.40
2019-03-18T01:37:41.679Z,76.90
2019-03-18T01:40:14.428Z,77.78
2019-03-18T01:42:42.976Z,77.59
2019-03-18T01:45:12.029Z,78.00
2019-03-18T01:47:40.515Z,77.25
2019-03-18T01:50:12.651Z,77.55
2019-03-18T01:52:42.633Z,77.46
2019-03-18T01:55:11.779Z,77.60
2019-03-18T01:57:40.330Z,77.70
2019-03-18T02:00:13.246Z,77.67
2019-03-18T02:02:41.806Z,77.74
2019-03-18T02:05:11.085Z,77.69
2019-03-18T02:07:39.631Z,77.67
2019-03-18T02:10:13.415Z,77.57
2019-03-18T02:12:44.693Z,79.12
2019-03-18T02:15:14.438Z,80.60
2019-03-18T02:17:42.977Z,81.09
2019-03-18T02:20:14.153Z,81.71
2019-03-18T02:22:42.701Z,81.88
2019-03-18T02:25:14.389Z,81.67
2019-03-18T02:27:42.855Z,82.21
2019-03-18T02:30:19.026Z,82.40
2019-03-18T02:32:47.697Z,82.24
2019-03-18T02:35:16.281Z,82.29
2019-03-18T02:37:49.218Z,82.06
2019-03-18T02:40:17.748Z,82.25
2019-03-18T02:42:46.227Z,81.96
2019-03-18T02:45:14.894Z,82.13
2019-03-18T02:47:46.117Z,82.20
2019-03-18T02:50:15.068Z,82.92
2019-03-18T02:52:43.529Z,83.38
2019-03-18T02:55:14.747Z,82.91
2019-03-18T02:57:43.221Z,83.64
2019-03-18T03:00:15.787Z,82.92
2019-03-18T03:02:44.363Z,83.29
2019-03-18T03:05:13.769Z,83.29
2019-03-18T03:07:44.112Z,82.93
2019-03-18T03:10:16.045Z,82.60
2019-03-18T03:12:44.487Z,81.53
2019-03-18T03:15:16.145Z,81.67
2019-03-18T03:17:44.739Z,81.34
2019-03-18T03:20:16.203Z,81.41
2019-03-18T03:22:44.665Z,81.11
2019-03-18T03:25:13.398Z,80.88
2019-03-18T03:27:41.959Z,80.75
2019-03-18T03:30:14.889Z,80.65
2019-03-18T03:32:43.506Z,80.44
2019-03-18T03:35:12.368Z,80.03
2019-03-18T03:37:42.501Z,79.80
2019-03-18T03:40:15.226Z,80.05
2019-03-18T03:42:43.746Z,79.90
2019-03-18T03:45:16.278Z,82.17
2019-03-18T03:47:44.767Z,83.28
2019-03-18T03:50:14.941Z,84.05
2019-03-18T03:52:43.416Z,83.69
2019-03-18T03:55:12.862Z,83.48
2019-03-18T03:57:43.149Z,83.79
2019-03-18T04:00:13.951Z,84.18
2019-03-18T04:02:42.551Z,83.94
2019-03-18T04:05:11.591Z,83.60
2019-03-18T04:07:40.481Z,84.15
2019-03-18T04:10:13.536Z,83.27
2019-03-18T04:12:42.043Z,83.07
2019-03-18T04:15:15.625Z,82.64
2019-03-18T04:17:44.221Z,82.98
2019-03-18T04:20:14.408Z,82.69
2019-03-18T04:22:44.179Z,82.62
2019-03-18T04:25:12.831Z,82.41
2019-03-18T04:27:41.380Z,82.13
2019-03-18T04:30:12.532Z,83.09
2019-03-18T04:32:41.008Z,82.88
2019-03-18T04:35:09.747Z,82.95
2019-03-18T04:37:38.237Z,82.90
2019-03-18T04:40:08.884Z,82.36
2019-03-18T04:42:37.402Z,82.18
2019-03-18T04:45:07.218Z,81.60
2019-03-18T04:47:35.824Z,81.77
2019-03-18T04:50:09.627Z,81.61
2019-03-18T04:52:38.195Z,81.48
2019-03-18T04:55:07.469Z,81.23
2019-03-18T04:57:36.015Z,81.35
2019-03-18T05:00:06.992Z,81.35
2019-03-18T05:02:37.447Z,81.25
2019-03-18T05:05:09.190Z,80.92
2019-03-18T05:07:37.743Z,81.07
2019-03-18T05:10:08.417Z,80.68
2019-03-18T05:12:36.885Z,80.93
2019-03-18T05:15:07.558Z,80.17
2019-03-18T05:17:36.013Z,80.36
2019-03-18T05:20:06.596Z,79.92
2019-03-18T05:22:35.097Z,79.85
2019-03-18T05:25:04.823Z,79.53
2019-03-18T05:27:34.483Z,79.59
2019-03-18T05:30:03.774Z,79.68
2019-03-18T05:32:32.264Z,79.77
2019-03-18T05:35:00.739Z,79.09
2019-03-18T05:37:31.945Z,78.95
2019-03-18T05:40:00.500Z,78.27
2019-03-18T05:42:29.011Z,79.06
2019-03-18T05:44:57.471Z,78.59
2019-03-18T05:47:38.701Z,78.79
2019-03-18T05:49:57.699Z,78.95
2019-03-18T05:52:26.175Z,78.96
2019-03-18T05:54:54.624Z,79.19
2019-03-18T05:57:25.900Z,79.52
2019-03-18T05:59:53.331Z,79.65
2019-03-18T06:02:21.823Z,79.59
2019-03-18T06:04:50.307Z,79.75
2019-03-18T06:07:18.805Z,79.73
2019-03-18T06:09:47.289Z,79.58
2019-03-18T06:12:15.765Z,79.97
2019-03-18T06:14:44.237Z,79.98
2019-03-18T06:17:12.805Z,79.84
2019-03-18T06:19:46.192Z,79.95
2019-03-18T06:22:14.598Z,79.62
2019-03-18T06:24:43.078Z,79.44
2019-03-18T06:27:11.551Z,79.37
2019-03-18T06:29:40.020Z,79.03
2019-03-18T06:32:08.988Z,79.21
2019-03-18T06:34:39.705Z,78.92
2019-03-18T06:37:07.940Z,79.00
2019-03-18T06:39:38.605Z,78.87
2019-03-18T06:42:06.763Z,78.38
2019-03-18T06:44:35.238Z,78.70
2019-03-18T06:47:03.802Z,78.87
2019-03-18T06:49:32.284Z,78.78
2019-03-18T06:52:00.772Z,78.71
2019-03-18T06:54:29.246Z,78.88
2019-03-18T06:56:57.723Z,78.96
2019-03-18T06:59:26.204Z,78.77
2019-03-18T07:01:54.664Z,78.87
2019-03-18T07:04:27.833Z,78.75
2019-03-18T07:06:58.075Z,78.73
2019-03-18T07:09:26.303Z,78.50
2019-03-18T07:11:56.054Z,79.48
2019-03-18T07:14:25.741Z,80.03
2019-03-18T07:16:54.148Z,80.03
2019-03-18T07:19:22.761Z,79.87
2019-03-18T07:21:51.222Z,78.90
2019-03-18T07:24:19.695Z,79.33
2019-03-18T07:26:48.170Z,79.31
2019-03-18T07:29:16.652Z,80.91
2019-03-18T07:31:45.126Z,82.75
2019-03-18T07:34:13.612Z,83.68
2019-03-18T07:36:47.248Z,84.09
2019-03-18T07:39:15.425Z,84.46
2019-03-18T07:41:43.894Z,84.72
2019-03-18T07:44:12.463Z,84.84
2019-03-18T07:46:40.926Z,85.40
2019-03-18T07:49:12.546Z,84.40
2019-03-18T07:51:41.074Z,84.39
2019-03-18T07:54:11.467Z,84.69
2019-03-18T07:56:39.963Z,84.88
2019-03-18T07:59:08.930Z,84.71
2019-03-18T08:01:37.394Z,83.75
2019-03-18T08:04:05.945Z,83.79
2019-03-18T08:06:34.442Z,83.87
2019-03-18T08:09:03.195Z,81.55
2019-03-18T08:11:31.672Z,80.19
2019-03-18T08:14:00.143Z,80.65
2019-03-18T08:16:30.637Z,78.37
2019-03-18T08:18:58.801Z,78.06
2019-03-18T08:21:27.307Z,76.71
2019-03-18T08:23:55.778Z,76.04
2019-03-18T08:26:27.099Z,76.40
2019-03-18T08:28:54.450Z,76.40
2019-03-18T08:31:22.983Z,76.37
2019-03-18T08:33:51.461Z,76.38
2019-03-18T08:36:19.965Z,75.89
2019-03-18T08:38:48.530Z,76.19
2019-03-18T08:41:18.514Z,77.09
2019-03-18T08:43:47.001Z,76.48
2019-03-18T08:46:15.501Z,76.83
2019-03-18T08:48:55.399Z,76.69
2019-03-18T08:51:17.190Z,76.92
2019-03-18T08:53:45.666Z,76.64
2019-03-18T08:56:14.197Z,77.44
2019-03-18T08:58:42.756Z,74.90
2019-03-18T09:01:11.222Z,73.76
2019-03-18T09:03:39.969Z,74.50
2019-03-18T09:06:08.453Z,74.48
2019-03-18T09:08:36.951Z,74.67
2019-03-18T09:11:05.498Z,74.14
2019-03-18T09:13:36.164Z,73.97
2019-03-18T09:16:04.769Z,74.31
2019-03-18T09:18:33.249Z,74.57
2019-03-18T09:21:01.724Z,72.73
2019-03-18T09:23:30.202Z,72.79
2019-03-18T09:25:58.671Z,71.21
2019-03-18T09:28:27.139Z,71.08
2019-03-18T09:30:55.665Z,71.93
2019-03-18T09:33:24.154Z,71.25
2019-03-18T09:35:52.847Z,72.98
2019-03-18T09:38:21.326Z,75.27
2019-03-18T09:40:49.923Z,77.22
2019-03-18T09:43:18.440Z,80.00
2019-03-18T09:45:46.892Z,80.18
2019-03-18T09:48:15.388Z,81.41
2019-03-18T09:50:43.853Z,82.16
2019-03-18T09:53:12.329Z,83.19
2019-03-18T09:55:41.062Z,82.11
2019-03-18T09:58:09.667Z,82.59
2019-03-18T10:00:38.141Z,82.61
2019-03-18T10:03:06.609Z,82.23
2019-03-18T10:05:35.075Z,78.79
2019-03-18T10:08:03.628Z,78.98
2019-03-18T10:10:32.209Z,78.78
2019-03-18T10:13:00.737Z,78.25
2019-03-18T10:15:32.160Z,77.21
2019-03-18T10:18:00.682Z,76.44
2019-03-18T10:20:29.176Z,76.26
2019-03-18T10:22:57.650Z,75.93
2019-03-18T10:25:26.188Z,74.25
2019-03-18T10:27:54.654Z,72.66
2019-03-18T10:30:23.342Z,71.66
2019-03-18T10:32:53.325Z,70.75
2019-03-18T10:35:23.422Z,71.14
2019-03-18T10:37:52.260Z,71.01
2019-03-18T10:40:20.912Z,71.80
2019-03-18T10:42:49.436Z,72.00
2019-03-18T10:45:18.088Z,70.30
2019-03-18T10:47:47.774Z,69.62
2019-03-18T10:50:18.083Z,68.44
2019-03-18T10:52:46.803Z,68.73
2019-03-18T10:55:16.087Z,68.95
2019-03-18T10:57:46.098Z,66.61
2019-03-18T11:00:18.949Z,66.55
2019-03-18T11:02:49.954Z,68.09
2019-03-18T11:05:20.102Z,66.76
2019-03-18T11:07:51.457Z,66.48
2019-03-18T11:10:19.028Z,65.88
2019-03-18T11:12:47.571Z,68.67
2019-03-18T11:15:20.806Z,70.77
2019-03-18T11:17:52.408Z,70.41
2019-03-18T11:20:21.107Z,71.90
2019-03-18T11:22:49.564Z,74.87
2019-03-18T11:25:18.290Z,75.97
2019-03-18T11:27:50.282Z,76.54
2019-03-18T11:30:19.478Z,78.27
2019-03-18T11:32:48.093Z,77.63
2019-03-18T11:35:19.788Z,77.63
2019-03-18T11:37:48.309Z,77.75
2019-03-18T11:40:21.434Z,78.73
2019-03-18T11:42:49.965Z,78.13
2019-03-18T11:45:18.608Z,78.78
2019-03-18T11:47:50.321Z,78.92
2019-03-18T11:50:19.790Z,78.66
2019-03-18T11:52:48.464Z,78.32
2019-03-18T11:55:19.152Z,76.91
2019-03-18T11:57:47.741Z,77.72
2019-03-18T12:00:21.498Z,78.63
2019-03-18T12:02:50.069Z,78.35
2019-03-18T12:05:21.657Z,78.18
2019-03-18T12:07:52.860Z,78.17
2019-03-18T12:10:25.098Z,76.99
2019-03-18T12:12:52.146Z,78.43
2019-03-18T12:15:25.418Z,77.37
2019-03-18T12:17:54.003Z,78.07
2019-03-18T12:20:25.475Z,78.99
2019-03-18T12:22:52.992Z,76.83
2019-03-18T12:25:22.971Z,75.21
2019-03-18T12:27:51.484Z,76.28
2019-03-18T12:30:27.206Z,75.28
2019-03-18T12:32:55.685Z,74.02
2019-03-18T12:35:24.411Z,71.87
2019-03-18T12:37:53.506Z,71.93
2019-03-18T12:40:22.213Z,70.89
2019-03-18T12:42:50.697Z,71.31
2019-03-18T12:45:22.816Z,69.19
2019-03-18T12:47:52.785Z,65.58
2019-03-18T12:50:38.611Z,63.77
2019-03-18T12:52:53.655Z,65.02
2019-03-18T12:55:23.710Z,61.74
2019-03-18T12:57:52.167Z,62.89
2019-03-18T13:00:35.815Z,64.01
2019-03-18T13:03:04.633Z,64.55
2019-03-18T13:05:33.167Z,65.79
2019-03-18T13:08:01.719Z,64.81
2019-03-18T13:10:30.205Z,64.03
2019-03-18T13:12:58.743Z,59.75
2019-03-18T13:15:27.303Z,56.85
2019-03-18T13:17:55.856Z,56.18
2019-03-18T13:20:24.586Z,57.46
2019-03-18T13:22:54.264Z,56.26
2019-03-18T13:25:23.001Z,57.67
2019-03-18T13:27:51.540Z,59.03
2019-03-18T13:30:20.940Z,58.53
2019-03-18T13:32:49.489Z,56.72
2019-03-18T13:35:18.191Z,58.42
2019-03-18T13:37:46.811Z,58.44
2019-03-18T13:40:21.349Z,59.82
2019-03-18T13:42:49.819Z,59.47
2019-03-18T13:45:22.929Z,58.94
2019-03-18T13:47:55.368Z,58.95
2019-03-18T13:50:24.015Z,59.14
2019-03-18T13:52:52.522Z,58.11
2019-03-18T13:55:21.234Z,55.96
2019-03-18T13:57:49.727Z,54.92
2019-03-18T14:00:23.236Z,58.21
2019-03-18T14:02:51.862Z,56.63
2019-03-18T14:05:22.561Z,55.94
2019-03-18T14:08:00.300Z,55.61
2019-03-18T14:10:22.378Z,55.84
2019-03-18T14:12:50.854Z,57.24
2019-03-18T14:15:23.272Z,55.99
2019-03-18T14:17:51.774Z,56.37
2019-03-18T14:20:30.354Z,55.61
2019-03-18T14:23:00.844Z,58.43
2019-03-18T14:25:29.030Z,61.80
2019-03-18T14:27:57.498Z,62.71
2019-03-18T14:30:25.953Z,64.82
2019-03-18T14:32:54.447Z,65.39
2019-03-18T14:35:23.056Z,66.41
2019-03-18T14:37:51.612Z,66.88
2019-03-18T14:40:21.459Z,66.87
2019-03-18T14:42:52.347Z,67.43
2019-03-18T14:45:21.893Z,66.92
2019-03-18T14:47:50.433Z,66.72
2019-03-18T14:50:19.681Z,66.63
2019-03-18T14:52:48.381Z,66.45
2019-03-18T14:55:17.738Z,65.87
2019-03-18T14:57:47.574Z,65.31
2019-03-18T15:00:28.614Z,64.59
2019-03-18T15:02:57.112Z,64.79
2019-03-18T15:05:25.708Z,63.69
2019-03-18T15:07:54.273Z,63.00
2019-03-18T15:10:24.534Z,62.09
2019-03-18T15:12:53.033Z,62.71
2019-03-18T15:15:23.357Z,61.18
2019-03-18T15:17:53.551Z,66.99
2019-03-18T15:20:34.014Z,70.76
2019-03-18T15:23:02.520Z,71.25
2019-03-18T15:25:32.743Z,71.68
2019-03-18T15:28:01.224Z,72.90
2019-03-18T15:30:32.755Z,72.24
2019-03-18T15:33:01.309Z,72.31
2019-03-18T15:35:30.178Z,72.33
2019-03-18T15:37:58.699Z,73.08
2019-03-18T15:40:29.165Z,73.72
2019-03-18T15:42:57.728Z,75.27
2019-03-18T15:45:26.271Z,76.43
2019-03-18T15:47:54.760Z,75.71
2019-03-18T15:50:29.422Z,75.44
2019-03-18T15:52:57.181Z,76.10
2019-03-18T15:55:25.641Z,76.44
2019-03-18T15:57:54.213Z,75.53
2019-03-18T16:00:28.008Z,76.08
2019-03-18T16:02:58.118Z,76.03
2019-03-18T16:05:26.682Z,75.98
2019-03-18T16:07:55.225Z,76.17
2019-03-18T16:10:23.829Z,75.71
2019-03-18T16:12:52.314Z,75.81
2019-03-18T16:15:20.969Z,75.84
2019-03-18T16:17:49.523Z,75.85
2019-03-18T16:20:24.559Z,75.74
2019-03-18T16:22:54.875Z,75.73
2019-03-18T16:25:23.402Z,75.97
2019-03-18T16:27:51.987Z,76.16
2019-03-18T16:30:21.814Z,77.22
2019-03-18T16:32:50.358Z,77.15
2019-03-18T16:35:21.012Z,77.72
2019-03-18T16:37:49.463Z,78.16
2019-03-18T16:40:19.263Z,78.28
2019-03-18T16:42:47.727Z,77.75
2019-03-18T16:45:19.748Z,76.99
2019-03-18T16:47:48.305Z,77.21
2019-03-18T16:50:24.744Z,77.77
2019-03-18T16:52:53.233Z,77.71
2019-03-18T16:55:21.876Z,77.42
2019-03-18T16:57:50.377Z,76.88
2019-03-18T17:00:23.672Z,76.92
2019-03-18T17:02:52.214Z,77.75
2019-03-18T17:05:20.872Z,77.21
2019-03-18T17:07:49.490Z,77.23
2019-03-18T17:10:18.158Z,77.08
2019-03-18T17:12:46.654Z,77.40
2019-03-18T17:15:19.587Z,77.58
2019-03-18T17:17:48.055Z,77.69
2019-03-18T17:20:17.390Z,77.58
2019-03-18T17:22:50.112Z,77.68
2019-03-18T17:25:27.824Z,77.41
2019-03-18T17:27:56.294Z,77.55
2019-03-18T17:30:26.727Z,77.29
2019-03-18T17:32:55.177Z,77.08
2019-03-18T17:35:23.798Z,77.09
2019-03-18T17:37:52.320Z,77.07
2019-03-18T17:40:21.719Z,77.43
2019-03-18T17:42:50.253Z,77.25
2019-03-18T17:45:19.903Z,77.64
2019-03-18T17:47:48.461Z,78.09
2019-03-18T17:50:21.858Z,77.87
2019-03-18T17:53:01.541Z,77.98
2019-03-18T17:55:23.466Z,77.81
2019-03-18T17:57:52.030Z,78.21
2019-03-18T18:00:25.340Z,77.69
2019-03-18T18:02:53.913Z,77.49
2019-03-18T18:05:25.480Z,77.55
2019-03-18T18:07:54.052Z,77.83
2019-03-18T18:10:22.777Z,77.32
2019-03-18T18:12:51.278Z,77.71
2019-03-18T18:15:19.989Z,78.00
2019-03-18T18:17:48.460Z,78.19
2019-03-18T18:20:17.253Z,77.75
2019-03-18T18:22:45.818Z,78.18
2019-03-18T18:25:15.378Z,78.07
2019-03-18T18:27:43.917Z,77.71
2019-03-18T18:30:15.484Z,77.11
2019-03-18T18:32:44.082Z,76.75
2019-03-18T18:35:14.968Z,76.51
2019-03-18T18:37:43.442Z,76.76
2019-03-18T18:40:22.843Z,76.21
2019-03-18T18:42:51.330Z,76.70
2019-03-18T18:45:21.258Z,76.89
2019-03-18T18:47:50.006Z,77.07
2019-03-18T18:50:18.780Z,77.31
2019-03-18T18:52:47.386Z,77.32
2019-03-18T18:55:16.223Z,77.46
2019-03-18T18:57:44.775Z,77.85
2019-03-18T19:00:15.435Z,77.92
2019-03-18T19:02:43.973Z,78.20
2019-03-18T19:05:17.870Z,78.24
2019-03-18T19:07:46.587Z,78.28
2019-03-18T19:10:21.152Z,78.33
2019-03-18T19:12:49.085Z,78.35
2019-03-18T19:15:28.249Z,79.76
2019-03-18T19:17:56.727Z,79.05
2019-03-18T19:20:25.355Z,78.96
2019-03-18T19:23:04.320Z,79.15
2019-03-18T19:25:33.088Z,78.93
2019-03-18T19:28:01.650Z,78.79
2019-03-18T19:30:30.124Z,78.82
2019-03-18T19:32:58.600Z,78.48
2019-03-18T19:35:28.764Z,78.96
2019-03-18T19:37:57.479Z,79.04
2019-03-18T19:40:26.080Z,78.50
2019-03-18T19:42:54.622Z,78.85
2019-03-18T19:45:23.289Z,78.72
2019-03-18T19:47:53.220Z,78.98
2019-03-18T19:50:29.273Z,78.89
2019-03-18T19:52:57.738Z,78.78
2019-03-18T19:55:28.330Z,79.06
2019-03-18T19:57:56.806Z,78.79
2019-03-18T20:00:27.381Z,78.46
2019-03-18T20:02:58.279Z,78.78
2019-03-18T20:05:26.808Z,78.62
2019-03-18T20:07:55.308Z,78.47
2019-03-18T20:10:23.926Z,78.20
2019-03-18T20:12:52.451Z,78.28
2019-03-18T20:15:21.325Z,78.47
2019-03-18T20:17:49.870Z,78.45
2019-03-18T20:20:19.639Z,78.33
2019-03-18T20:22:48.172Z,78.12
2019-03-18T20:25:16.860Z,78.44
2019-03-18T20:27:45.369Z,78.13
2019-03-18T20:30:21.308Z,78.02
2019-03-18T20:32:50.298Z,77.91
2019-03-18T20:35:23.901Z,77.98
2019-03-18T20:37:54.751Z,77.95
2019-03-18T20:40:23.139Z,77.60
2019-03-18T20:42:51.701Z,77.81
2019-03-18T20:45:21.508Z,77.24
2019-03-18T20:47:50.143Z,77.25
2019-03-18T20:50:28.244Z,77.44
2019-03-18T20:52:52.861Z,77.49
2019-03-18T20:55:24.500Z,76.91
2019-03-18T20:57:52.970Z,76.73
2019-03-18T21:00:22.558Z,76.44
2019-03-18T21:02:51.181Z,77.24
2019-03-18T21:05:19.854Z,76.64
2019-03-18T21:07:48.518Z,76.29
2019-03-18T21:10:20.977Z,76.30
2019-03-18T21:12:49.518Z,76.24
2019-03-18T21:15:19.032Z,76.17
2019-03-18T21:17:47.641Z,76.60
2019-03-18T21:20:27.248Z,77.03
2019-03-18T21:22:55.786Z,76.85
2019-03-18T21:25:24.466Z,77.13
2019-03-18T21:27:54.657Z,76.16
2019-03-18T21:30:23.660Z,76.29
2019-03-18T21:32:52.561Z,76.35
2019-03-18T21:35:26.620Z,76.19
2019-03-18T21:37:55.125Z,76.25
2019-03-18T21:40:23.668Z,76.52
2019-03-18T21:42:52.195Z,76.11
2019-03-18T21:45:23.546Z,76.31
2019-03-18T21:47:52.413Z,76.42
2019-03-18T21:50:21.215Z,76.41
2019-03-18T21:52:51.314Z,76.65
2019-03-18T21:55:20.109Z,76.84
2019-03-18T21:57:48.641Z,76.60
2019-03-18T22:00:18.367Z,76.61
2019-03-18T22:02:48.622Z,76.93
2019-03-18T22:05:17.372Z,76.54
2019-03-18T22:07:46.150Z,76.85
2019-03-18T22:10:19.843Z,76.69
2019-03-18T22:12:48.450Z,77.07
2019-03-18T22:15:17.384Z,77.33
2019-03-18T22:17:47.586Z,77.43
2019-03-18T22:20:18.412Z,77.56
2019-03-18T22:22:46.968Z,77.94
2019-03-18T22:25:16.169Z,78.73
2019-03-18T22:27:44.769Z,79.27
2019-03-18T22:30:18.205Z,79.06
2019-03-18T22:32:48.427Z,78.97
2019-03-18T22:35:18.620Z,78.81
2019-03-18T22:37:47.111Z,78.45
2019-03-18T22:40:17.607Z,78.51
2019-03-18T22:42:46.074Z,78.22
2019-03-18T22:45:15.759Z,78.21
2019-03-18T22:47:44.362Z,78.21
2019-03-18T22:50:18.065Z,78.36
2019-03-18T22:52:48.124Z,78.68
2019-03-18T22:55:16.717Z,78.71
2019-03-18T22:57:45.274Z,78.95
2019-03-18T23:00:39.896Z,78.95
2019-03-18T23:03:09.699Z,79.01
2019-03-18T23:05:38.186Z,79.07
2019-03-18T23:08:06.822Z,79.05
2019-03-18T23:10:35.274Z,79.17
2019-03-18T23:13:03.795Z,79.42
2019-03-18T23:15:34.875Z,79.03
2019-03-18T23:18:03.495Z,79.33
2019-03-18T23:20:31.973Z,79.09
2019-03-18T23:23:00.426Z,79.00
2019-03-18T23:25:29.471Z,79.00
2019-03-18T23:27:57.928Z,79.34
2019-03-18T23:30:26.576Z,79.42
2019-03-18T23:32:55.025Z,79.51
2019-03-18T23:35:23.497Z,79.54
2019-03-18T23:37:53.231Z,79.61
2019-03-18T23:40:23.255Z,79.57
2019-03-18T23:42:53.365Z,79.78
2019-03-18T23:45:22.289Z,79.75
2019-03-18T23:47:51.148Z,80.21
2019-03-18T23:50:19.779Z,80.05
2019-03-18T23:52:48.321Z,80.20
2019-03-18T23:55:19.303Z,80.04
2019-03-18T23:57:47.180Z,80.06
